Oconto, WI

12:37 PM CST on December 06, 2019 (GMT -0600)
Oconto Municipal

Weather History for KOCQ - October, 2019

Change the Weather History Date:

Tuesday, October 8, 2019

  Actual Average Record
Temperature  
Mean Temperature 50 °F -  
Max Temperature 66 °F 59 °F 76 °F (2017)
Min Temperature 35 °F 38 °F 33 °F (2014)
Degree Days  
Heating Degree Days 14    
Moisture  
Dew Point 43 °F    
Average Humidity 76    
Maximum Humidity 100    
Minimum Humidity 42    
Precipitation  
Precipitation 0.00 in - - ()
Sea Level Pressure  
Sea Level Pressure 30.16 in    
Wind  
Wind Speed 3 mph (SSE)    
Max Wind Speed 13 mph    
Max Gust Speed 20 mph    
Visibility 10 miles    
Events      
Averages and records for this station are not official NWS values.
T = Trace of Precipitation, MM = Missing Value Source: NWS Daily Summary

Daily Weather History Graph

Daily Weather History Graph

Search for Another Location

Airport or City:

Astronomy

Oct. 08, 2019 Rise Set
Actual Time 6:58 AM CDT 6:19 PM CDT
Civil Twilight 6:28 AM CDT 6:48 PM CDT
Nautical Twilight 5:54 AM CDT 7:22 PM CDT
Astronomical Twilight 5:20 AM CDT 7:56 PM CDT
Moon 4:33 PM CDT (10/8) 1:30 AM CDT (10/8)
Length of Visible Light 12h 20m
Length of Day
11h 21m
Waxing Gibbous, 78% of the Moon is Illuminated
Oct 8
Waxing Gibbous
Oct 13
Full
Oct 21
Last Quarter
Oct 27
New
Nov 4
First Quarter

Hourly Weather History & Observations

Time (CDT) Temp. Dew Point Humidity Pressure Visibility Wind Dir Wind Speed Gust Speed Precip Events Conditions
12:15 AM 40.3 °F 39.2 °F 96% 30.17 in 10.0 mi Calm Calm - N/A   Clear
12:35 AM 39.7 °F 38.8 °F 97% 30.17 in 10.0 mi Calm Calm - N/A   Clear
12:55 AM 39.4 °F 38.7 °F 97% 30.17 in 10.0 mi Calm Calm - N/A   Clear
1:15 AM 39.7 °F 39.2 °F 98% 30.17 in 10.0 mi Calm Calm - N/A   Clear
1:35 AM 39.2 °F 38.5 °F 97% 30.17 in 10.0 mi Calm Calm - N/A   Clear
1:55 AM 38.7 °F 38.3 °F 99% 30.17 in 10.0 mi Calm Calm - N/A   Clear
2:15 AM 38.3 °F 37.8 °F 98% 30.17 in 10.0 mi Calm Calm - N/A   Clear
2:35 AM 38.5 °F 38.1 °F 99% 30.17 in 10.0 mi Calm Calm - N/A   Clear
2:55 AM 37.2 °F 36.7 °F 98% 30.18 in 10.0 mi Calm Calm - N/A   Clear
3:15 AM 37.9 °F 37.6 °F 99% 30.18 in 10.0 mi Calm Calm - N/A   Clear
3:35 AM 37.9 °F 37.6 °F 99% 30.18 in 10.0 mi Calm Calm - N/A   Clear
3:55 AM 37.6 °F 37.4 °F 99% 30.18 in 10.0 mi Calm Calm - N/A   Clear
4:35 AM 37.2 °F 37.2 °F 100% 30.19 in 10.0 mi Calm Calm - N/A   Clear
4:55 AM 37.0 °F 36.9 °F 99% 30.19 in 10.0 mi Calm Calm - N/A   Clear
5:15 AM 36.7 °F 36.1 °F 98% 30.19 in 10.0 mi Calm Calm - N/A   Clear
5:35 AM 36.5 °F 36.3 °F 99% 30.19 in 10.0 mi Calm Calm - N/A   Clear
5:55 AM 36.3 °F 36.0 °F 99% 30.20 in 10.0 mi Calm Calm - N/A   Clear
6:15 AM 36.5 °F 36.3 °F 99% 30.19 in 10.0 mi Calm Calm - N/A   Clear
6:35 AM 35.6 °F 35.2 °F 99% 30.20 in 10.0 mi Calm Calm - N/A   Clear
6:55 AM 36.1 °F 36.0 °F 99% 30.20 in 10.0 mi Calm Calm - N/A   Clear
7:15 AM 36.0 °F 35.6 °F 99% 30.20 in 10.0 mi Calm Calm - N/A   Clear
7:35 AM 36.1 °F 35.6 °F 98% 30.20 in 10.0 mi Calm Calm - N/A   Clear
7:55 AM 38.3 °F 37.9 °F 99% 30.21 in 10.0 mi Calm Calm - N/A   Clear
8:15 AM 42.8 °F 42.4 °F 99% 30.21 in 10.0 mi Calm Calm - N/A   Clear
8:35 AM 47.7 °F 44.1 °F 87% 30.21 in 10.0 mi Calm Calm - N/A   Clear
8:55 AM 50.4 °F 46.2 °F 86% 30.20 in 10.0 mi Calm Calm - N/A   Clear
9:15 AM 52.9 °F 46.8 °F 80% 30.21 in 10.0 mi Calm Calm - N/A   Clear
9:35 AM 55.4 °F 47.5 °F 75% 30.21 in 10.0 mi SSW 3.5 mph - N/A   Clear
9:55 AM 57.4 °F 47.3 °F 69% 30.20 in 10.0 mi SSW 3.5 mph - N/A   Clear
10:15 AM 60.1 °F 44.6 °F 57% 30.20 in 10.0 mi South 6.9 mph - N/A   Clear
10:35 AM 61.3 °F 43.3 °F 52% 30.20 in 10.0 mi SSW 8.1 mph - N/A   Clear
10:55 AM 62.1 °F 43.3 °F 50% 30.20 in 10.0 mi SSW 8.1 mph - N/A   Clear
11:15 AM 62.6 °F 42.6 °F 48% 30.19 in 10.0 mi South 10.4 mph - N/A   Clear
11:35 AM 63.5 °F 43.7 °F 48% 30.19 in 10.0 mi South 9.2 mph - N/A   Clear
11:55 AM 63.5 °F 43.5 °F 48% 30.19 in 10.0 mi South 8.1 mph - N/A   Clear
12:15 PM 64.0 °F 44.1 °F 48% 30.18 in 10.0 mi SSE 9.2 mph - N/A   Clear
12:35 PM 64.9 °F 44.2 °F 47% 30.18 in 10.0 mi South 9.2 mph - N/A   Clear
12:55 PM 64.6 °F 43.9 °F 47% 30.17 in 10.0 mi SSE 10.4 mph - N/A   Clear
1:15 PM 65.1 °F 43.7 °F 46% 30.17 in 10.0 mi SSE 10.4 mph - N/A   Clear
1:35 PM 65.3 °F 43.5 °F 45% 30.16 in 10.0 mi SSE 12.7 mph - N/A   Clear
1:55 PM 66.2 °F 43.7 °F 44% 30.15 in 10.0 mi South 9.2 mph - N/A   Clear
2:15 PM 65.5 °F 42.8 °F 44% 30.14 in 10.0 mi SSE 11.5 mph 17.3 mph N/A   Clear
2:35 PM 66.2 °F 42.6 °F 42% 30.14 in 10.0 mi SSE 10.4 mph 16.1 mph N/A   Clear
2:55 PM 66.0 °F 42.3 °F 42% 30.14 in 10.0 mi SSE 9.2 mph - N/A   Clear
3:15 PM 66.4 °F 42.6 °F 42% 30.13 in 10.0 mi South 6.9 mph - N/A   Clear
3:35 PM 66.2 °F 44.2 °F 45% 30.12 in 10.0 mi South 9.2 mph - N/A   Clear
3:55 PM 64.6 °F 49.1 °F 57% 30.12 in 10.0 mi SSE 10.4 mph 18.4 mph N/A   Clear
4:15 PM 63.7 °F 48.0 °F 57% 30.12 in 10.0 mi SSE 11.5 mph 19.6 mph N/A   Clear
4:35 PM 63.1 °F 48.0 °F 58% 30.12 in 10.0 mi SSE 11.5 mph 17.3 mph N/A   Clear
4:55 PM 62.6 °F 46.2 °F 55% 30.12 in 10.0 mi SSE 11.5 mph 17.3 mph N/A   Clear
5:15 PM 61.7 °F 46.9 °F 58% 30.12 in 10.0 mi SSE 9.2 mph - N/A   Clear
5:35 PM 60.3 °F 48.9 °F 66% 30.12 in 10.0 mi SSE 9.2 mph - N/A   Clear
5:55 PM 59.0 °F 48.6 °F 68% 30.12 in 10.0 mi SSE 9.2 mph - N/A   Clear
6:15 PM 58.1 °F 48.2 °F 70% 30.12 in 10.0 mi SSE 9.2 mph 16.1 mph N/A   Clear
6:35 PM 57.4 °F 48.2 °F 71% 30.12 in 10.0 mi SSE 10.4 mph 17.3 mph N/A   Clear
6:55 PM 56.8 °F 48.4 °F 73% 30.12 in 10.0 mi SSE 9.2 mph - N/A   Clear
7:15 PM 56.3 °F 48.9 °F 76% 30.12 in 10.0 mi SSE 9.2 mph - N/A   Clear
7:35 PM 55.9 °F 49.5 °F 79% 30.12 in 10.0 mi SSE 6.9 mph - N/A   Clear
7:55 PM 55.4 °F 49.6 °F 81% 30.13 in 10.0 mi SSE 5.8 mph - N/A   Clear
8:15 PM 55.0 °F 49.6 °F 82% 30.12 in 10.0 mi SSE 6.9 mph - N/A   Clear
8:35 PM 54.9 °F 49.5 °F 82% 30.12 in 10.0 mi SSE 5.8 mph - N/A   Clear
8:55 PM 54.5 °F 49.5 °F 83% 30.12 in 10.0 mi SSE 4.6 mph - N/A   Clear
9:15 PM 54.1 °F 49.1 °F 83% 30.12 in 10.0 mi South 3.5 mph - N/A   Clear
9:35 PM 54.0 °F 49.1 °F 84% 30.12 in 10.0 mi South 3.5 mph - N/A   Clear
9:55 PM 53.8 °F 48.4 °F 82% 30.12 in 10.0 mi South 4.6 mph - N/A   Clear
10:15 PM 53.8 °F 47.8 °F 80% 30.12 in 10.0 mi South 3.5 mph - N/A   Clear
10:35 PM 53.6 °F 47.8 °F 81% 30.12 in 10.0 mi South 4.6 mph - N/A   Clear
10:55 PM 53.6 °F 47.7 °F 80% 30.12 in 10.0 mi South 3.5 mph - N/A   Clear
11:15 PM 52.9 °F 47.3 °F 81% 30.12 in 10.0 mi South 3.5 mph - N/A   Clear
11:35 PM 52.3 °F 46.9 °F 82% 30.12 in 10.0 mi South 3.5 mph - N/A   Clear
11:55 PM 52.5 °F 46.8 °F 81% 30.12 in 10.0 mi Calm Calm - N/A   Clear